Time;durP1;ratioP1;P1;durP2;ratioP2;P2;SDS_P1;SDS_P2;PMS_P1;PMS_P2;Temp;Humidity;BMP_temperature;BMP_pressure;BME280_temperature;BME280_humidity;BME280_pressure;Samples;Min_cycle;Max_cycle;Signal;HPM_P1;HPM_P2
2021/03/26 00:01:07;;;;;;;;;;;;;;;;;;5068608;28;1941;-70
2021/03/26 00:03:36;;;;;;;;;;;;;;;;;;5064877;28;896;-69
2021/03/26 00:06:04;;;;;;;;;;;;;;;;;;5071310;28;1287;-69
2021/03/26 00:08:30;;;;;;;;;;;;;;;;;;5069754;28;843;-71
2021/03/26 00:10:56;;;;;;;;;;;;;;;;;;5067849;28;870;-69
2021/03/26 00:13:21;;;;;;;;;;;;;;;;;;5068962;28;1981;-71
2021/03/26 00:15:46;;;;;;;;;;;;;;;;;;5069053;28;819;-68
2021/03/26 00:18:12;;;;;;;;;;;;;;;;;;5073879;28;819;-70
2021/03/26 00:20:37;;;;;;;;;;;;;;;;;;5069092;28;862;-70
2021/03/26 00:23:03;;;;;;;;;;;;;;;;;;5069269;28;805;-69
2021/03/26 00:25:29;;;;;;;;;;;;;;;;;;5069826;28;863;-70
2021/03/26 00:27:54;;;;;;;;;;;;;;;;;;5069183;28;839;-68
2021/03/26 00:30:20;;;;;;;;;;;;;;;;;;5068947;28;871;-70
2021/03/26 00:32:46;;;;;;;;;;;;;;;;;;5069091;28;1898;-69
2021/03/26 00:35:13;;;;;;;;;;;;;;;;;;5069640;28;835;-70
2021/03/26 00:37:38;;;;;;;;;;;;;;;;;;5069811;28;851;-70
2021/03/26 00:40:05;;;;;;;;;;;;;;;;;;5068708;28;762;-67
2021/03/26 00:42:30;;;;;;;;;;;;;;;;;;5067665;28;1603;-66
2021/03/26 00:44:56;;;;;;;;;;;;;;;;;;5068282;28;877;-69
2021/03/26 00:47:21;;;;;;;;;;;;;;;;;;5068228;28;843;-70
2021/03/26 00:49:47;;;;;;;;;;;;;;;;;;5068725;28;877;-68
2021/03/26 00:52:13;;;;;;;;;;;;;;;;;;5069150;28;1926;-66
2021/03/26 00:54:38;;;;;;;;;;;;;;;;;;5085139;28;1130;-70
2021/03/26 00:57:04;;;;;;;;;;;;;;;;;;5088332;28;846;-68
2021/03/26 00:59:29;;;;;;;;;;;;;;;;;;5088543;28;1086;-69
2021/03/26 01:01:54;;;;;;;;;;;;;;;;;;5088858;28;877;-70
2021/03/26 01:04:20;;;;;;;;;;;;;;;;;;5088565;28;1027;-70
2021/03/26 01:06:45;;;;;;;;;;;;;;;;;;5089414;28;901;-67
2021/03/26 01:09:10;;;;;;;;;;;;;;;;;;5089280;28;885;-70
2021/03/26 01:11:37;;;;;;;;;;;;;;;;;;5088431;28;807;-70
2021/03/26 01:14:04;;;;;;;;;;;;;;;;;;5088912;28;860;-70
2021/03/26 01:16:30;;;;;;;;;;;;;;;;;;5088784;28;799;-69
2021/03/26 01:18:56;;;;;;;;;;;;;;;;;;5092104;28;861;-71
2021/03/26 01:21:24;;;;;;;;;;;;;;;;;;5088139;28;948;-71
2021/03/26 01:23:49;;;;;;;;;;;;;;;;;;5088426;28;807;-69
2021/03/26 01:26:15;;;;;;;;;;;;;;;;;;5087840;28;850;-70
2021/03/26 01:28:40;;;;;;;;;;;;;;;;;;5088990;28;854;-71
2021/03/26 01:31:06;;;;;;;;;;;;;;;;;;5088696;28;827;-71
2021/03/26 01:33:31;;;;;;;;;;;;;;;;;;5088472;28;1957;-71
2021/03/26 01:35:57;;;;;;;;;;;;;;;;;;5076199;28;1749;-70
2021/03/26 01:38:23;;;;;;;;;;;;;;;;;;5067689;28;847;-69
2021/03/26 01:40:50;;;;;;;;;;;;;;;;;;5068066;28;835;-71
2021/03/26 01:43:19;;;;;;;;;;;;;;;;;;5067802;28;866;-67
2021/03/26 01:45:44;;;;;;;;;;;;;;;;;;5068133;28;822;-68
2021/03/26 01:48:13;;;;;;;;;;;;;;;;;;5068879;28;883;-69
2021/03/26 01:50:39;;;;;;;;;;;;;;;;;;5068355;28;823;-70
2021/03/26 01:53:04;;;;;;;;;;;;;;;;;;5071133;28;1886;-65
2021/03/26 01:55:32;;;;;;;;;;;;;;;;;;5088244;28;893;-65
2021/03/26 01:57:57;;;;;;;;;;;;;;;;;;5082410;28;1142;-68
2021/03/26 02:00:43;;;;;;;;;;;;;;;;;;5065919;28;1069;-65
2021/03/26 02:03:13;;;;;;;;;;;;;;;;;;5028416;28;1150;-66
2021/03/26 02:05:38;;;;;;;;;;;;;;;;;;5028991;28;736;-65
2021/03/26 02:08:04;;;;;;;;;;;;;;;;;;5027825;28;811;-65
2021/03/26 02:10:30;;;;;;;;;;;;;;;;;;5027566;28;915;-67
2021/03/26 02:12:59;;;;;;;;;;;;;;;;;;5027850;28;1961;-67
2021/03/26 02:15:28;;;;;;;;;;;;;;;;;;5027929;28;915;-67
2021/03/26 02:17:54;;;;;;;;;;;;;;;;;;5027622;28;867;-66
2021/03/26 02:20:35;;;;;;;;;;;;;;;;;;5030852;28;860;-66
2021/03/26 02:23:10;;;;;;;;;;;;;;;;;;5027961;28;796;-65
2021/03/26 02:25:36;;;;;;;;;;;;;;;;;;5009854;28;1312;-67
2021/03/26 02:28:02;;;;;;;;;;;;;;;;;;5026875;28;808;-65
2021/03/26 02:30:29;;;;;;;;;;;;;;;;;;5028214;28;792;-66
2021/03/26 02:32:55;;;;;;;;;;;;;;;;;;5027621;28;1957;-64
2021/03/26 02:35:29;;;;;;;;;;;;;;;;;;5027913;28;835;-65
2021/03/26 02:38:00;;;;;;;;;;;;;;;;;;5028136;28;843;-64
2021/03/26 02:40:36;;;;;;;;;;;;;;;;;;5027443;28;922;-64
2021/03/26 02:43:14;;;;;;;;;;;;;;;;;;5027303;28;887;-67
2021/03/26 02:45:42;;;;;;;;;;;;;;;;;;5028068;28;930;-70
2021/03/26 02:48:13;;;;;;;;;;;;;;;;;;5027584;28;811;-69
2021/03/26 02:50:57;;;;;;;;;;;;;;;;;;5028231;28;898;-69
2021/03/26 02:53:22;;;;;;;;;;;;;;;;;;5039355;28;1959;-69
2021/03/26 02:56:02;;;;;;;;;;;;;;;;;;5067485;28;878;-69
2021/03/26 02:58:32;;;;;;;;;;;;;;;;;;5066804;28;831;-69
2021/03/26 03:00:59;;;;;;;;;;;;;;;;;;5085010;28;909;-69
2021/03/26 03:03:27;;;;;;;;;;;;;;;;;;5087598;28;893;-69
2021/03/26 03:06:16;;;;;;;;;;;;;;;;;;5087215;28;870;-65
2021/03/26 03:08:42;;;;;;;;;;;;;;;;;;5082454;28;1135;-67
2021/03/26 03:11:21;;;;;;;;;;;;;;;;;;5087639;28;967;-69
2021/03/26 03:13:50;;;;;;;;;;;;;;;;;;5086838;28;1969;-67
2021/03/26 03:16:20;;;;;;;;;;;;;;;;;;5086706;28;823;-68
2021/03/26 03:19:05;;;;;;;;;;;;;;;;;;5086945;28;855;-65
2021/03/26 03:21:36;;;;;;;;;;;;;;;;;;5090141;28;965;-71
2021/03/26 03:24:13;;;;;;;;;;;;;;;;;;5086692;28;834;-70
2021/03/26 03:27:04;;;;;;;;;;;;;;;;;;5087563;28;886;-67
2021/03/26 03:29:36;;;;;;;;;;;;;;;;;;5085584;28;909;-69
2021/03/26 03:32:01;;;;;;;;;;;;;;;;;;5086265;28;1914;-71
2021/03/26 03:34:32;;;;;;;;;;;;;;;;;;5086773;28;922;-69
2021/03/26 03:37:16;;;;;;;;;;;;;;;;;;5087112;28;835;-68
2021/03/26 03:40:00;;;;;;;;;;;;;;;;;;5087701;28;862;-70
2021/03/26 03:42:45;;;;;;;;;;;;;;;;;;5090292;28;834;-70
2021/03/26 03:45:15;;;;;;;;;;;;;;;;;;5083216;28;1236;-70
2021/03/26 03:47:50;;;;;;;;;;;;;;;;;;5090612;28;890;-71
2021/03/26 03:50:19;;;;;;;;;;;;;;;;;;5090233;28;776;-71
2021/03/26 03:52:52;;;;;;;;;;;;;;;;;;5089270;28;1975;-67
2021/03/26 03:55:21;;;;;;;;;;;;;;;;;;5069725;28;860;-72
2021/03/26 03:57:50;;;;;;;;;;;;;;;;;;5069610;28;823;-70
2021/03/26 04:00:19;;;;;;;;;;;;;;;;;;5069940;28;939;-71
2021/03/26 04:02:56;;;;;;;;;;;;;;;;;;5070158;28;855;-71
2021/03/26 04:05:28;;;;;;;;;;;;;;;;;;5069356;28;839;-70
2021/03/26 04:07:56;;;;;;;;;;;;;;;;;;5069366;28;1022;-72
2021/03/26 04:10:22;;;;;;;;;;;;;;;;;;5069017;28;973;-71
2021/03/26 04:12:51;;;;;;;;;;;;;;;;;;5068796;28;1980;-72
2021/03/26 04:15:19;;;;;;;;;;;;;;;;;;5069036;28;819;-72
2021/03/26 04:17:51;;;;;;;;;;;;;;;;;;5069535;28;837;-71
2021/03/26 04:20:19;;;;;;;;;;;;;;;;;;5069132;28;819;-71
2021/03/26 04:22:47;;;;;;;;;;;;;;;;;;5071891;28;898;-69
2021/03/26 04:25:13;;;;;;;;;;;;;;;;;;5069941;28;843;-70
2021/03/26 04:27:40;;;;;;;;;;;;;;;;;;5069872;28;898;-71
2021/03/26 04:30:11;;;;;;;;;;;;;;;;;;5069031;28;811;-71
2021/03/26 04:32:37;;;;;;;;;;;;;;;;;;5068508;28;1893;-70
2021/03/26 04:35:04;;;;;;;;;;;;;;;;;;5069101;28;803;-71
2021/03/26 04:37:40;;;;;;;;;;;;;;;;;;5068783;28;829;-71
2021/03/26 04:40:18;;;;;;;;;;;;;;;;;;5059918;28;1171;-70
2021/03/26 04:42:44;;;;;;;;;;;;;;;;;;5066311;28;1128;-70
2021/03/26 04:45:15;;;;;;;;;;;;;;;;;;5069924;28;823;-72
2021/03/26 04:48:03;;;;;;;;;;;;;;;;;;5068552;28;843;-70
2021/03/26 04:50:32;;;;;;;;;;;;;;;;;;5068266;28;934;-66
2021/03/26 04:53:08;;;;;;;;;;;;;;;;;;5068441;28;1893;-68
2021/03/26 04:55:37;;;;;;;;;;;;;;;;;;5055661;28;1214;-70
2021/03/26 04:58:06;;;;;;;;;;;;;;;;;;5048305;28;820;-70
2021/03/26 05:00:34;;;;;;;;;;;;;;;;;;5063698;28;807;-68
2021/03/26 05:03:05;;;;;;;;;;;;;;;;;;5068008;28;807;-70
2021/03/26 05:05:34;;;;;;;;;;;;;;;;;;5067992;28;875;-70
2021/03/26 05:08:01;;;;;;;;;;;;;;;;;;5068613;28;819;-70
2021/03/26 05:10:29;;;;;;;;;;;;;;;;;;5065195;28;1240;-68
2021/03/26 05:13:02;;;;;;;;;;;;;;;;;;5049222;28;1898;-70
2021/03/26 05:15:27;;;;;;;;;;;;;;;;;;5048535;28;871;-71
2021/03/26 05:17:54;;;;;;;;;;;;;;;;;;5031389;28;1253;-69
2021/03/26 05:20:20;;;;;;;;;;;;;;;;;;5049536;28;1123;-70
2021/03/26 05:22:51;;;;;;;;;;;;;;;;;;5051140;28;886;-69
2021/03/26 05:25:28;;;;;;;;;;;;;;;;;;5048198;28;866;-68
2021/03/26 05:27:55;;;;;;;;;;;;;;;;;;5047821;28;911;-67
2021/03/26 05:30:29;;;;;;;;;;;;;;;;;;5047708;28;897;-66
2021/03/26 05:33:01;;;;;;;;;;;;;;;;;;5048335;28;1894;-66
2021/03/26 05:35:53;;;;;;;;;;;;;;;;;;5047590;28;919;-67
2021/03/26 05:38:21;;;;;;;;;;;;;;;;;;5023961;28;1494;-65
2021/03/26 05:40:47;;;;;;;;;;;;;;;;;;5048201;28;831;-67
2021/03/26 05:43:31;;;;;;;;;;;;;;;;;;5048788;28;843;-68
2021/03/26 05:46:05;;;;;;;;;;;;;;;;;;5047441;28;823;-67
2021/03/26 05:48:37;;;;;;;;;;;;;;;;;;5047314;28;894;-65
2021/03/26 05:51:09;;;;;;;;;;;;;;;;;;5047400;28;847;-70
2021/03/26 05:53:48;;;;;;;;;;;;;;;;;;5054921;28;1980;-69
2021/03/26 05:56:30;;;;;;;;;;;;;;;;;;5067322;28;819;-68
2021/03/26 05:59:11;;;;;;;;;;;;;;;;;;5069542;28;1235;-69
2021/03/26 06:01:39;;;;;;;;;;;;;;;;;;5087515;28;835;-70
2021/03/26 06:04:23;;;;;;;;;;;;;;;;;;5087348;28;865;-69
2021/03/26 06:07:07;;;;;;;;;;;;;;;;;;5088272;28;823;-66
2021/03/26 06:09:38;;;;;;;;;;;;;;;;;;5088154;28;880;-70
2021/03/26 06:12:39;;;;;;;;;;;;;;;;;;5088021;28;1898;-69
2021/03/26 06:15:20;;;;;;;;;;;;;;;;;;5028392;28;1572;-66
2021/03/26 06:18:02;;;;;;;;;;;;;;;;;;5042724;28;1206;-67
2021/03/26 06:20:34;;;;;;;;;;;;;;;;;;5047239;28;870;-67
2021/03/26 06:23:08;;;;;;;;;;;;;;;;;;5056991;28;1242;-70
2021/03/26 06:25:33;;;;;;;;;;;;;;;;;;5067377;28;873;-65
2021/03/26 06:28:02;;;;;;;;;;;;;;;;;;5067056;28;826;-67
2021/03/26 06:30:35;;;;;;;;;;;;;;;;;;5066765;28;938;-68
2021/03/26 06:33:01;;;;;;;;;;;;;;;;;;5067468;28;1969;-67
2021/03/26 06:35:45;;;;;;;;;;;;;;;;;;5067682;28;866;-69
2021/03/26 06:38:49;;;;;;;;;;;;;;;;;;5070058;28;1516;-67
2021/03/26 06:41:26;;;;;;;;;;;;;;;;;;5042049;28;1207;-67
2021/03/26 06:44:00;;;;;;;;;;;;;;;;;;5043497;28;847;-66
2021/03/26 06:46:25;;;;;;;;;;;;;;;;;;5045286;28;1183;-65
2021/03/26 06:49:02;;;;;;;;;;;;;;;;;;5060995;28;1057;-67
2021/03/26 06:51:31;;;;;;;;;;;;;;;;;;5066818;28;822;-67
2021/03/26 06:54:15;;;;;;;;;;;;;;;;;;5077777;28;1969;-65
2021/03/26 06:56:59;;;;;;;;;;;;;;;;;;5088788;28;898;-73
2021/03/26 06:59:30;;;;;;;;;;;;;;;;;;5074642;28;1225;-72
2021/03/26 07:02:14;;;;;;;;;;;;;;;;;;5087355;28;827;-69
2021/03/26 07:04:54;;;;;;;;;;;;;;;;;;5086802;28;1268;-66
2021/03/26 07:07:46;;;;;;;;;;;;;;;;;;5046823;28;827;-68
2021/03/26 07:10:21;;;;;;;;;;;;;;;;;;5047418;28;836;-63
2021/03/26 07:13:02;;;;;;;;;;;;;;;;;;5046438;28;1922;-64
2021/03/26 07:15:32;;;;;;;;;;;;;;;;;;5049745;28;1032;-66
2021/03/26 07:18:06;;;;;;;;;;;;;;;;;;5048975;28;800;-63
2021/03/26 07:20:32;;;;;;;;;;;;;;;;;;5050288;28;851;-63
2021/03/26 07:23:06;;;;;;;;;;;;;;;;;;5050825;28;815;-71
2021/03/26 07:25:55;;;;;;;;;;;;;;;;;;5049975;28;882;-71
2021/03/26 07:28:36;;;;;;;;;;;;;;;;;;5046327;28;1494;-72
2021/03/26 07:31:20;;;;;;;;;;;;;;;;;;5049002;28;1191;-72
2021/03/26 07:33:45;;;;;;;;;;;;;;;;;;5049643;28;1959;-71
2021/03/26 07:36:11;;;;;;;;;;;;;;;;;;5051137;28;838;-65
2021/03/26 07:38:36;;;;;;;;;;;;;;;;;;5050467;28;867;-68
2021/03/26 07:41:20;;;;;;;;;;;;;;;;;;5050341;28;850;-71
2021/03/26 07:44:04;;;;;;;;;;;;;;;;;;5072633;28;1191;-72
2021/03/26 07:46:41;;;;;;;;;;;;;;;;;;5090945;28;803;-72
2021/03/26 07:49:06;;;;;;;;;;;;;;;;;;5090062;28;894;-72
2021/03/26 07:51:40;;;;;;;;;;;;;;;;;;5090670;28;815;-71
2021/03/26 07:54:13;;;;;;;;;;;;;;;;;;5090263;28;1968;-68
2021/03/26 07:57:04;;;;;;;;;;;;;;;;;;5091190;28;856;-70
2021/03/26 07:59:30;;;;;;;;;;;;;;;;;;5089677;28;932;-67
2021/03/26 08:02:07;;;;;;;;;;;;;;;;;;5089779;28;890;-69
2021/03/26 08:04:55;;;;;;;;;;;;;;;;;;5090408;28;897;-67
2021/03/26 08:07:39;;;;;;;;;;;;;;;;;;5089947;28;816;-68
2021/03/26 08:10:23;;;;;;;;;;;;;;;;;;5084727;28;1264;-70
2021/03/26 08:13:12;;;;;;;;;;;;;;;;;;5090158;28;1906;-68
2021/03/26 08:15:45;;;;;;;;;;;;;;;;;;5088896;28;1272;-72
2021/03/26 08:18:29;;;;;;;;;;;;;;;;;;5090680;28;823;-72
2021/03/26 08:21:12;;;;;;;;;;;;;;;;;;5070330;28;1541;-69
2021/03/26 08:23:41;;;;;;;;;;;;;;;;;;5052103;28;1246;-64
2021/03/26 08:26:25;;;;;;;;;;;;;;;;;;5068409;28;886;-71
2021/03/26 08:29:25;;;;;;;;;;;;;;;;;;5070027;28;839;-70
2021/03/26 08:31:57;;;;;;;;;;;;;;;;;;5069469;28;859;-71
2021/03/26 08:34:52;;;;;;;;;;;;;;;;;;5064856;28;898;-69
2021/03/26 08:37:34;;;;;;;;;;;;;;;;;;5030154;28;1295;-70
2021/03/26 08:40:01;;;;;;;;;;;;;;;;;;5064299;28;1740;-65
2021/03/26 08:42:29;;;;;;;;;;;;;;;;;;5065406;28;1560;-68
2021/03/26 08:45:02;;;;;;;;;;;;;;;;;;5081699;28;1611;-69
2021/03/26 08:47:30;;;;;;;;;;;;;;;;;;5060917;28;1973;-69
2021/03/26 08:50:08;;;;;;;;;;;;;;;;;;5071442;28;1535;-67
2021/03/26 08:52:48;;;;;;;;;;;;;;;;;;5072937;28;1894;-71
2021/03/26 08:55:17;;;;;;;;;;;;;;;;;;5048966;28;870;-67
2021/03/26 08:57:58;;;;;;;;;;;;;;;;;;5064849;28;1021;-66
2021/03/26 09:00:35;;;;;;;;;;;;;;;;;;5063882;28;1214;-69
2021/03/26 09:03:22;;;;;;;;;;;;;;;;;;5050535;28;1240;-70
2021/03/26 09:05:57;;;;;;;;;;;;;;;;;;5068317;28;1159;-69
2021/03/26 09:08:26;;;;;;;;;;;;;;;;;;5067411;28;1137;-64
2021/03/26 09:11:00;;;;;;;;;;;;;;;;;;5058508;28;1690;-71
2021/03/26 09:13:29;;;;;;;;;;;;;;;;;;5051565;28;1982;-74
2021/03/26 09:16:02;;;;;;;;;;;;;;;;;;5048279;28;1088;-71
2021/03/26 09:18:37;;;;;;;;;;;;;;;;;;5062469;28;1168;-71
2021/03/26 09:21:05;;;;;;;;;;;;;;;;;;5067934;28;1048;-71
2021/03/26 09:24:03;;;;;;;;;;;;;;;;;;5050216;28;1277;-68
2021/03/26 09:26:38;;;;;;;;;;;;;;;;;;5019045;28;1353;-68
2021/03/26 09:29:15;;;;;;;;;;;;;;;;;;5029979;28;919;-69
2021/03/26 09:31:48;;;;;;;;;;;;;;;;;;5048742;28;843;-71
2021/03/26 09:34:31;;;;;;;;;;;;;;;;;;5047903;28;1955;-73
2021/03/26 09:37:05;;;;;;;;;;;;;;;;;;5051218;28;1050;-68
2021/03/26 09:39:32;;;;;;;;;;;;;;;;;;5067829;28;1234;-71
2021/03/26 09:42:09;;;;;;;;;;;;;;;;;;5068124;28;871;-68
2021/03/26 09:44:43;;;;;;;;;;;;;;;;;;5050488;28;1208;-66
2021/03/26 09:47:12;;;;;;;;;;;;;;;;;;5052603;28;1338;-68
2021/03/26 09:49:50;;;;;;;;;;;;;;;;;;5058648;28;1133;-68
2021/03/26 09:52:39;;;;;;;;;;;;;;;;;;5045285;28;1957;-66
2021/03/26 09:55:11;;;;;;;;;;;;;;;;;;5035855;28;1625;-69
2021/03/26 09:57:39;;;;;;;;;;;;;;;;;;5036095;28;1754;-65
2021/03/26 10:00:14;;;;;;;;;;;;;;;;;;5058318;28;1071;-64
2021/03/26 10:02:44;;;;;;;;;;;;;;;;;;5049042;28;1454;-67
2021/03/26 10:05:20;;;;;;;;;;;;;;;;;;5052813;28;1087;-65
2021/03/26 10:08:05;;;;;;;;;;;;;;;;;;5066719;28;1042;-68
2021/03/26 10:13:01;;;;;;;;;;;;;;;;;;5046980;28;1898;-66
2021/03/26 10:15:31;;;;;;;;;;;;;;;;;;5036237;28;1027;-66
2021/03/26 10:18:01;;;;;;;;;;;;;;;;;;5051100;28;1022;-65
2021/03/26 10:20:37;;;;;;;;;;;;;;;;;;5044647;28;775;-64
2021/03/26 10:23:22;;;;;;;;;;;;;;;;;;5044290;28;873;-65
2021/03/26 10:26:00;;;;;;;;;;;;;;;;;;5044380;28;1020;-64
2021/03/26 10:28:49;;;;;;;;;;;;;;;;;;5039774;28;2062;-64
2021/03/26 10:31:37;;;;;;;;;;;;;;;;;;5030567;28;1423;-63
2021/03/26 10:34:04;;;;;;;;;;;;;;;;;;5044379;28;1894;-62
2021/03/26 10:36:43;;;;;;;;;;;;;;;;;;4143388;28;10000605;-62
2021/03/26 10:39:30;;;;;;;;;;;;;;;;;;5007815;28;875;-61
2021/03/26 10:41:58;;;;;;;;;;;;;;;;;;5007921;28;1534;-61
2021/03/26 10:44:23;;;;;;;;;;;;;;;;;;5013504;28;1165;-61
2021/03/26 10:47:00;;;;;;;;;;;;;;;;;;5007029;28;816;-62
2021/03/26 10:49:35;;;;;;;;;;;;;;;;;;5009994;28;1041;-62
2021/03/26 10:52:13;;;;;;;;;;;;;;;;;;5031296;28;816;-61
2021/03/26 10:54:59;;;;;;;;;;;;;;;;;;5027708;28;1115;-60
2021/03/26 10:57:27;;;;;;;;;;;;;;;;;;5015909;28;1140;-61
2021/03/26 10:59:52;;;;;;;;;;;;;;;;;;5020096;28;816;-60
2021/03/26 11:02:20;;;;;;;;;;;;;;;;;;5030678;28;1570;-61
2021/03/26 11:04:52;;;;;;;;;;;;;;;;;;5040054;28;1222;-61
2021/03/26 11:07:20;;;;;;;;;;;;;;;;;;5035577;28;1845;-62
2021/03/26 11:09:51;;;;;;;;;;;;;;;;;;5019496;28;758;-61
2021/03/26 11:12:19;;;;;;;;;;;;;;;;;;5011750;28;1966;-61
2021/03/26 11:14:53;;;;;;;;;;;;;;;;;;5030485;28;827;-61
2021/03/26 11:17:28;;;;;;;;;;;;;;;;;;5029548;28;870;-61
2021/03/26 11:19:53;;;;;;;;;;;;;;;;;;5030174;28;876;-61
2021/03/26 11:22:22;;;;;;;;;;;;;;;;;;5029948;28;894;-61
2021/03/26 11:25:07;;;;;;;;;;;;;;;;;;5030934;28;875;-61
2021/03/26 11:27:37;;;;;;;;;;;;;;;;;;5030379;28;945;-61
2021/03/26 11:30:21;;;;;;;;;;;;;;;;;;5029758;28;817;-61
2021/03/26 11:32:49;;;;;;;;;;;;;;;;;;5018918;28;1906;-61
2021/03/26 11:35:19;;;;;;;;;;;;;;;;;;5029467;28;848;-62
2021/03/26 11:37:48;;;;;;;;;;;;;;;;;;5030070;28;859;-61
2021/03/26 11:40:20;;;;;;;;;;;;;;;;;;5030587;28;848;-62
2021/03/26 11:43:03;;;;;;;;;;;;;;;;;;5030275;28;1029;-61
2021/03/26 11:45:32;;;;;;;;;;;;;;;;;;5030208;28;800;-61
2021/03/26 11:48:04;;;;;;;;;;;;;;;;;;5030481;28;898;-61
2021/03/26 11:50:32;;;;;;;;;;;;;;;;;;5029963;28;859;-61
2021/03/26 11:52:57;;;;;;;;;;;;;;;;;;5029876;28;1914;-61
2021/03/26 11:55:29;;;;;;;;;;;;;;;;;;5029914;28;827;-61
2021/03/26 11:58:01;;;;;;;;;;;;;;;;;;5028503;28;882;-61
2021/03/26 12:00:29;;;;;;;;;;;;;;;;;;5027718;28;890;-61
2021/03/26 12:02:55;;;;;;;;;;;;;;;;;;5029766;28;807;-61
2021/03/26 12:05:20;;;;;;;;;;;;;;;;;;5030043;28;836;-61
2021/03/26 12:08:09;;;;;;;;;;;;;;;;;;5029422;28;839;-61
2021/03/26 12:10:43;;;;;;;;;;;;;;;;;;5026072;28;1388;-61
2021/03/26 12:13:19;;;;;;;;;;;;;;;;;;5030518;28;1898;-61
2021/03/26 12:16:08;;;;;;;;;;;;;;;;;;5027611;28;1190;-62
2021/03/26 12:18:52;;;;;;;;;;;;;;;;;;5026191;28;1264;-61
2021/03/26 12:21:17;;;;;;;;;;;;;;;;;;5029730;28;919;-61
2021/03/26 12:23:59;;;;;;;;;;;;;;;;;;5030467;28;907;-61
2021/03/26 12:26:34;;;;;;;;;;;;;;;;;;5029425;28;886;-61
2021/03/26 12:29:10;;;;;;;;;;;;;;;;;;5029365;28;863;-61
2021/03/26 12:31:40;;;;;;;;;;;;;;;;;;5029801;28;902;-61
2021/03/26 12:34:08;;;;;;;;;;;;;;;;;;5029199;28;1985;-61
2021/03/26 12:36:38;;;;;;;;;;;;;;;;;;5029251;28;851;-61
2021/03/26 12:39:12;;;;;;;;;;;;;;;;;;5029160;28;807;-61
2021/03/26 12:41:48;;;;;;;;;;;;;;;;;;5027909;28;869;-61
2021/03/26 12:44:20;;;;;;;;;;;;;;;;;;5028928;28;824;-62
2021/03/26 12:46:50;;;;;;;;;;;;;;;;;;5028716;28;962;-61
2021/03/26 12:49:22;;;;;;;;;;;;;;;;;;5029398;28;906;-61
2021/03/26 12:51:52;;;;;;;;;;;;;;;;;;5028906;28;855;-61
2021/03/26 12:54:37;;;;;;;;;;;;;;;;;;5028137;28;1890;-61
2021/03/26 12:57:08;;;;;;;;;;;;;;;;;;5028693;28;820;-61
2021/03/26 12:59:40;;;;;;;;;;;;;;;;;;5028487;28;949;-61
2021/03/26 13:02:25;;;;;;;;;;;;;;;;;;5028740;28;851;-61
2021/03/26 13:04:56;;;;;;;;;;;;;;;;;;5028431;28;906;-61
2021/03/26 13:07:40;;;;;;;;;;;;;;;;;;5028114;28;819;-61
2021/03/26 13:10:18;;;;;;;;;;;;;;;;;;5028457;28;815;-61
2021/03/26 13:12:44;;;;;;;;;;;;;;;;;;5028231;28;1898;-61
2021/03/26 13:15:19;;;;;;;;;;;;;;;;;;5029734;28;811;-61
2021/03/26 13:17:45;;;;;;;;;;;;;;;;;;5028635;28;911;-61
2021/03/26 13:20:13;;;;;;;;;;;;;;;;;;5028912;28;851;-61
2021/03/26 13:22:39;;;;;;;;;;;;;;;;;;5029300;28;824;-61
2021/03/26 13:25:30;;;;;;;;;;;;;;;;;;5028169;28;844;-61
2021/03/26 13:27:55;;;;;;;;;;;;;;;;;;5011625;28;1330;-61
2021/03/26 13:30:27;;;;;;;;;;;;;;;;;;5028577;28;902;-61
2021/03/26 13:32:58;;;;;;;;;;;;;;;;;;5028026;28;1945;-61
2021/03/26 13:35:27;;;;;;;;;;;;;;;;;;5027773;28;863;-60
2021/03/26 13:37:55;;;;;;;;;;;;;;;;;;5028030;28;852;-60
2021/03/26 13:40:23;;;;;;;;;;;;;;;;;;5027869;28;947;-62
2021/03/26 13:43:11;;;;;;;;;;;;;;;;;;5027775;28;835;-61
2021/03/26 13:45:44;;;;;;;;;;;;;;;;;;5022226;28;1384;-61
2021/03/26 13:48:14;;;;;;;;;;;;;;;;;;5029171;28;816;-61
2021/03/26 13:50:39;;;;;;;;;;;;;;;;;;5028492;28;839;-61
2021/03/26 13:53:04;;;;;;;;;;;;;;;;;;5024250;28;1886;-61
2021/03/26 13:55:39;;;;;;;;;;;;;;;;;;5008455;28;827;-61
2021/03/26 13:58:07;;;;;;;;;;;;;;;;;;5007872;28;832;-65
2021/03/26 14:00:33;;;;;;;;;;;;;;;;;;5021636;28;872;-61
2021/03/26 14:03:01;;;;;;;;;;;;;;;;;;5027221;28;819;-61
2021/03/26 14:05:33;;;;;;;;;;;;;;;;;;5027633;28;866;-61
2021/03/26 14:08:08;;;;;;;;;;;;;;;;;;5027618;28;902;-62
2021/03/26 14:10:51;;;;;;;;;;;;;;;;;;5027440;28;874;-61
2021/03/26 14:13:23;;;;;;;;;;;;;;;;;;5027682;28;1898;-61
2021/03/26 14:16:18;;;;;;;;;;;;;;;;;;5027293;28;819;-62
2021/03/26 14:18:47;;;;;;;;;;;;;;;;;;5012816;28;1639;-62
2021/03/26 14:21:19;;;;;;;;;;;;;;;;;;5008319;28;847;-61
2021/03/26 14:23:47;;;;;;;;;;;;;;;;;;5006693;28;878;-62
2021/03/26 14:26:25;;;;;;;;;;;;;;;;;;5008486;28;898;-61
2021/03/26 14:28:56;;;;;;;;;;;;;;;;;;5007928;28;898;-61
2021/03/26 14:31:27;;;;;;;;;;;;;;;;;;5039003;28;1191;-61
2021/03/26 14:34:05;;;;;;;;;;;;;;;;;;5005998;28;1948;-61
2021/03/26 14:36:45;;;;;;;;;;;;;;;;;;5007265;28;882;-61
2021/03/26 14:39:25;;;;;;;;;;;;;;;;;;5007847;28;1049;-61
2021/03/26 14:41:59;;;;;;;;;;;;;;;;;;5007425;28;820;-61
2021/03/26 14:44:32;;;;;;;;;;;;;;;;;;5007469;28;859;-61
2021/03/26 14:47:03;;;;;;;;;;;;;;;;;;5007849;28;887;-61
2021/03/26 14:49:35;;;;;;;;;;;;;;;;;;5007321;28;864;-61
2021/03/26 14:52:05;;;;;;;;;;;;;;;;;;5007241;28;939;-61
2021/03/26 14:54:33;;;;;;;;;;;;;;;;;;5022664;28;1959;-61
2021/03/26 14:57:01;;;;;;;;;;;;;;;;;;5026807;28;859;-61
2021/03/26 14:59:40;;;;;;;;;;;;;;;;;;5026376;28;903;-61
2021/03/26 15:02:07;;;;;;;;;;;;;;;;;;5027312;28;859;-61
2021/03/26 15:04:38;;;;;;;;;;;;;;;;;;5026930;28;915;-61
2021/03/26 15:07:09;;;;;;;;;;;;;;;;;;5026734;28;682;-61
2021/03/26 15:09:43;;;;;;;;;;;;;;;;;;5026257;28;792;-61
2021/03/26 15:12:29;;;;;;;;;;;;;;;;;;5027548;28;848;-61
2021/03/26 15:14:57;;;;;;;;;;;;;;;;;;5026746;28;883;-61
2021/03/26 15:17:40;;;;;;;;;;;;;;;;;;5005606;28;1513;-61
2021/03/26 15:20:18;;;;;;;;;;;;;;;;;;5007142;28;911;-61
2021/03/26 15:22:59;;;;;;;;;;;;;;;;;;5007403;28;840;-61
2021/03/26 15:25:40;;;;;;;;;;;;;;;;;;5006959;28;840;-61
2021/03/26 15:28:09;;;;;;;;;;;;;;;;;;5006929;28;930;-61
2021/03/26 15:30:38;;;;;;;;;;;;;;;;;;5007035;28;875;-61
2021/03/26 15:33:10;;;;;;;;;;;;;;;;;;5007001;28;1886;-61
2021/03/26 15:35:41;;;;;;;;;;;;;;;;;;5007654;28;808;-61
2021/03/26 15:38:13;;;;;;;;;;;;;;;;;;5010597;28;930;-61
2021/03/26 15:40:44;;;;;;;;;;;;;;;;;;5010881;28;855;-61
2021/03/26 15:43:16;;;;;;;;;;;;;;;;;;5011271;28;860;-61
2021/03/26 15:46:08;;;;;;;;;;;;;;;;;;5011304;28;821;-61
2021/03/26 15:48:54;;;;;;;;;;;;;;;;;;5008954;28;1576;-61
2021/03/26 15:51:22;;;;;;;;;;;;;;;;;;5010572;28;891;-61
2021/03/26 15:54:09;;;;;;;;;;;;;;;;;;5019411;28;1962;-61
2021/03/26 15:56:40;;;;;;;;;;;;;;;;;;5029515;28;837;-60
2021/03/26 15:59:24;;;;;;;;;;;;;;;;;;5029703;28;880;-61
2021/03/26 16:01:59;;;;;;;;;;;;;;;;;;5030173;28;958;-61
2021/03/26 16:04:43;;;;;;;;;;;;;;;;;;5029537;28;843;-61
2021/03/26 16:07:27;;;;;;;;;;;;;;;;;;5012918;28;1794;-61
2021/03/26 16:10:10;;;;;;;;;;;;;;;;;;5001913;28;1320;-65
2021/03/26 16:12:38;;;;;;;;;;;;;;;;;;5037632;28;2040;-62
2021/03/26 16:15:10;;;;;;;;;;;;;;;;;;5016050;28;1159;-62
2021/03/26 16:17:54;;;;;;;;;;;;;;;;;;5012144;28;1162;-61
2021/03/26 16:20:31;;;;;;;;;;;;;;;;;;5009180;28;914;-61
2021/03/26 16:22:57;;;;;;;;;;;;;;;;;;5027566;28;1227;-62
2021/03/26 16:25:35;;;;;;;;;;;;;;;;;;5030213;28;848;-62
2021/03/26 16:28:13;;;;;;;;;;;;;;;;;;5029224;28;839;-61
2021/03/26 16:30:57;;;;;;;;;;;;;;;;;;5029003;28;919;-62
2021/03/26 16:33:40;;;;;;;;;;;;;;;;;;5029429;28;1964;-62
2021/03/26 16:36:08;;;;;;;;;;;;;;;;;;5029132;28;935;-62
2021/03/26 16:38:55;;;;;;;;;;;;;;;;;;5044071;28;887;-62
2021/03/26 16:41:39;;;;;;;;;;;;;;;;;;5028521;28;827;-62
2021/03/26 16:44:14;;;;;;;;;;;;;;;;;;5028853;28;894;-63
2021/03/26 16:47:15;;;;;;;;;;;;;;;;;;5043932;28;1695;-63
2021/03/26 16:49:45;;;;;;;;;;;;;;;;;;5006798;28;1576;-62
2021/03/26 16:52:10;;;;;;;;;;;;;;;;;;4999005;28;1523;-63
2021/03/26 16:54:51;;;;;;;;;;;;;;;;;;5014857;28;1886;-63
2021/03/26 16:57:19;;;;;;;;;;;;;;;;;;5019648;28;1271;-62
2021/03/26 16:59:48;;;;;;;;;;;;;;;;;;5034545;28;1159;-62
2021/03/26 17:02:24;;;;;;;;;;;;;;;;;;5039429;28;1218;-64
2021/03/26 17:05:08;;;;;;;;;;;;;;;;;;5028133;28;871;-65
2021/03/26 17:07:52;;;;;;;;;;;;;;;;;;5028557;28;855;-64
2021/03/26 17:10:36;;;;;;;;;;;;;;;;;;5034273;28;1084;-61
2021/03/26 17:13:02;;;;;;;;;;;;;;;;;;5062267;28;1914;-62
2021/03/26 17:15:36;;;;;;;;;;;;;;;;;;5048228;28;826;-63
2021/03/26 17:18:07;;;;;;;;;;;;;;;;;;5046912;28;902;-63
2021/03/26 17:20:43;;;;;;;;;;;;;;;;;;5035729;28;1234;-61
2021/03/26 17:23:30;;;;;;;;;;;;;;;;;;5028805;28;1033;-61
2021/03/26 17:26:19;;;;;;;;;;;;;;;;;;5028231;28;927;-61
2021/03/26 17:28:44;;;;;;;;;;;;;;;;;;5024622;28;1080;-62
2021/03/26 17:31:20;;;;;;;;;;;;;;;;;;5060061;28;1262;-62
2021/03/26 17:33:54;;;;;;;;;;;;;;;;;;5027687;28;1878;-62
2021/03/26 17:36:25;;;;;;;;;;;;;;;;;;5032913;28;1885;-63
2021/03/26 17:38:50;;;;;;;;;;;;;;;;;;5022181;28;834;-63
2021/03/26 17:41:28;;;;;;;;;;;;;;;;;;5034527;28;1189;-59
2021/03/26 17:44:06;;;;;;;;;;;;;;;;;;5033688;28;1238;-61
2021/03/26 17:46:49;;;;;;;;;;;;;;;;;;5043064;28;1148;-61
2021/03/26 17:49:27;;;;;;;;;;;;;;;;;;5027141;28;1676;-60
2021/03/26 17:51:52;;;;;;;;;;;;;;;;;;5011380;28;1669;-61
2021/03/26 17:54:37;;;;;;;;;;;;;;;;;;5027195;28;1898;-60
2021/03/26 17:57:08;;;;;;;;;;;;;;;;;;5025764;28;1884;-61
2021/03/26 17:59:44;;;;;;;;;;;;;;;;;;5014916;28;1657;-61